SBGO/GYN METAR and TAF weather

Enter ICAO airport designator
Station Type Date Time Source
SBGO METAR 2021/03/04 22:00 UTC NOAA

SBGO 042200Z 20005KT 170V230 9999 FEW015TCU 25/19 Q1015


Station Type Date Time Source
SBGO Decoded METAR 2021/03/04 22:00 UTC NOAA

Goiania Aeroporto , Brazil (SBGO) 16-38S 049-13W
Mar 04, 2021 - 05:00 PM EST / 2021.03.04 2200 UTC
Wind: from the SSW (200 degrees) at 6 MPH (5 KT) (direction variable):0
Visibility: greater than 7 mile(s):0
Sky conditions: mostly clear
Weather: Towering cumulus clouds observed
Temperature: 77 F (25 C)
Dew Point: 66 F (19 C)
Relative Humidity: 69%
Pressure (altimeter): 29.97 in. Hg (1015 hPa)
ob: SBGO 042200Z 20005KT 170V230 9999 FEW015TCU 25/19 Q1015
cycle: 22

Station Type Date Time Source
SBGO TAF 2021/03/04 18:39 UTC NOAA

TAF TAF SBGO 041621Z 0418/0518 30008KT 9999 BKN040 FEW045TCU TX28/0418Z TN18/0508Z
TEMPO 0418/0421 36008KT 8000 TSRA SCT035 FEW045CB
TEMPO 0421/0502 13007KT 9000 TSRA BKN030 FEW045CB
BECMG 0502/0504 VRB02KT 9999 FEW035 PROB30 0507/0511 5000 BR SCT003
BECMG 0511/0513 04008KT
BECMG 0513/0515 35008KT 9999 SCT040 FEW045TCU
TEMPO 0515/0518 8000 TSRA SCT035 FEW045CB
RMK PGO

Example: see airport list